createdAt,value
2019-04-27T00:02:22.123Z,11.80
2019-04-27T00:07:56.309Z,11.90
2019-04-27T00:13:02.227Z,11.90
2019-04-27T00:18:16.966Z,11.90
2019-04-27T00:23:23.638Z,11.90
2019-04-27T00:28:27.358Z,11.80
2019-04-27T00:33:31.107Z,11.90
2019-04-27T00:38:50.366Z,11.80
2019-04-27T00:43:54.050Z,12.00
2019-04-27T00:48:57.763Z,11.90
2019-04-27T00:54:01.469Z,12.00
2019-04-27T00:59:24.266Z,11.90
2019-04-27T01:04:30.930Z,11.70
2019-04-27T01:09:35.434Z,11.70
2019-04-27T01:14:39.110Z,11.70
2019-04-27T01:19:43.016Z,11.70
2019-04-27T01:24:46.713Z,11.60
2019-04-27T01:29:50.450Z,11.60
2019-04-27T01:34:54.239Z,11.70
2019-04-27T01:39:59.023Z,11.80
2019-04-27T01:45:02.813Z,11.50
2019-04-27T01:50:08.624Z,11.80
2019-04-27T01:55:12.770Z,11.80
2019-04-27T02:00:40.682Z,11.70
2019-04-27T02:05:49.323Z,11.60
2019-04-27T02:10:53.041Z,11.60
2019-04-27T02:15:58.691Z,11.70
2019-04-27T02:21:02.159Z,11.60
2019-04-27T02:26:05.943Z,11.60
2019-04-27T02:31:29.503Z,11.60
2019-04-27T02:36:33.298Z,11.70
2019-04-27T02:41:39.828Z,11.60
2019-04-27T02:46:42.901Z,11.70
2019-04-27T02:51:56.270Z,11.60
2019-04-27T02:57:00.010Z,11.70
2019-04-27T03:02:10.713Z,11.60
2019-04-27T03:07:14.703Z,11.70
2019-04-27T03:12:20.120Z,11.70
2019-04-27T03:17:32.656Z,11.60
2019-04-27T03:22:49.778Z,11.70
2019-04-27T03:28:11.178Z,11.50
2019-04-27T03:33:14.943Z,11.70
2019-04-27T03:38:19.780Z,11.60
2019-04-27T03:43:25.136Z,11.60
2019-04-27T03:48:29.556Z,11.70
2019-04-27T03:53:52.757Z,11.70
2019-04-27T03:59:06.835Z,11.70
2019-04-27T04:04:12.143Z,11.70
2019-04-27T04:09:16.185Z,11.80
2019-04-27T04:14:21.305Z,11.70
2019-04-27T04:19:26.024Z,11.80
2019-04-27T04:24:31.790Z,12.00
2019-04-27T04:29:39.613Z,11.90
2019-04-27T04:34:46.387Z,11.80
2019-04-27T04:39:59.827Z,11.70
2019-04-27T04:45:22.039Z,11.80
2019-04-27T04:50:30.392Z,11.90
2019-04-27T04:55:36.062Z,11.90
2019-04-27T05:00:44.280Z,11.80
2019-04-27T05:05:50.084Z,11.70
2019-04-27T05:10:53.968Z,11.60
2019-04-27T05:15:58.915Z,11.80
2019-04-27T05:21:08.775Z,11.70
2019-04-27T05:26:13.000Z,11.80
2019-04-27T05:31:16.678Z,11.90
2019-04-27T05:36:21.003Z,11.90
2019-04-27T05:41:24.685Z,12.10
2019-04-27T05:46:46.229Z,12.30
2019-04-27T05:51:50.183Z,12.30
2019-04-27T05:56:53.953Z,12.30
2019-04-27T06:01:59.316Z,12.50
2019-04-27T06:07:03.182Z,12.70
2019-04-27T06:12:08.805Z,12.70
2019-04-27T06:17:12.382Z,13.00
2019-04-27T06:22:16.506Z,13.20
2019-04-27T06:27:21.098Z,13.40
2019-04-27T06:32:24.847Z,14.00
2019-04-27T06:37:31.947Z,14.00
2019-04-27T06:42:35.661Z,14.00
2019-04-27T06:47:41.300Z,14.20
2019-04-27T06:52:44.752Z,14.50
2019-04-27T06:57:49.123Z,14.40
2019-04-27T07:02:55.371Z,13.90
2019-04-27T07:07:59.154Z,13.80
2019-04-27T07:13:02.911Z,13.70
2019-04-27T07:18:06.650Z,13.90
2019-04-27T07:23:10.654Z,14.20
2019-04-27T07:28:14.389Z,14.30
2019-04-27T07:33:18.648Z,14.30
2019-04-27T07:38:22.673Z,14.70
2019-04-27T07:43:39.617Z,15.20
2019-04-27T07:48:43.463Z,15.70
2019-04-27T07:53:48.909Z,15.90
2019-04-27T07:58:52.899Z,16.40
2019-04-27T08:03:56.748Z,16.50
2019-04-27T08:09:00.527Z,17.00
2019-04-27T08:14:04.209Z,17.60
2019-04-27T08:19:09.946Z,18.10
2019-04-27T08:24:13.677Z,18.20
2019-04-27T08:29:35.271Z,18.40
2019-04-27T08:34:39.775Z,18.30
2019-04-27T08:39:43.512Z,18.20
2019-04-27T08:44:47.253Z,18.20
2019-04-27T08:49:50.930Z,18.30
2019-04-27T08:54:54.682Z,18.40
2019-04-27T08:59:59.711Z,18.50
2019-04-27T09:05:04.943Z,18.90
2019-04-27T09:10:14.450Z,19.20
2019-04-27T09:15:22.984Z,19.20
2019-04-27T09:20:30.225Z,19.20
2019-04-27T09:25:33.930Z,18.90
2019-04-27T09:30:39.315Z,19.80
2019-04-27T09:35:43.189Z,20.90
2019-04-27T09:40:46.864Z,21.80
2019-04-27T09:45:50.555Z,21.60
2019-04-27T09:50:56.037Z,21.10
2019-04-27T09:55:59.812Z,19.90
2019-04-27T10:01:03.505Z,19.00
2019-04-27T10:06:07.246Z,18.40
2019-04-27T10:11:10.998Z,18.10
2019-04-27T10:16:14.682Z,18.20
2019-04-27T10:21:18.338Z,18.70
2019-04-27T10:26:22.039Z,19.30
2019-04-27T10:31:26.174Z,21.40
2019-04-27T10:36:39.342Z,21.90
2019-04-27T10:41:43.085Z,23.90
2019-04-27T10:46:47.093Z,22.10
2019-04-27T10:51:50.787Z,20.30
2019-04-27T10:56:55.877Z,19.30
2019-04-27T11:01:59.858Z,18.90
2019-04-27T11:07:08.325Z,18.90
2019-04-27T11:12:12.402Z,19.10
2019-04-27T11:17:16.461Z,19.80
2019-04-27T11:22:20.299Z,20.40
2019-04-27T11:27:24.056Z,20.90
2019-04-27T11:32:27.994Z,20.30
2019-04-27T11:37:35.665Z,19.10
2019-04-27T11:42:39.180Z,18.10
2019-04-27T11:47:43.021Z,17.70
2019-04-27T11:52:46.741Z,17.90
2019-04-27T11:57:50.402Z,18.70
2019-04-27T12:02:54.159Z,20.90
2019-04-27T12:07:57.849Z,24.60
2019-04-27T12:13:01.533Z,30.40
2019-04-27T12:18:08.836Z,29.40
2019-04-27T12:23:12.055Z,29.10
2019-04-27T12:28:42.425Z,33.50
2019-04-27T12:33:46.391Z,34.00
2019-04-27T12:38:50.070Z,33.60
2019-04-27T12:43:53.829Z,33.80
2019-04-27T12:48:57.813Z,33.20
2019-04-27T12:54:07.050Z,32.90
2019-04-27T12:59:16.785Z,33.70
2019-04-27T13:04:20.464Z,34.10
2019-04-27T13:09:25.647Z,30.90
2019-04-27T13:14:29.439Z,28.20
2019-04-27T13:19:33.125Z,27.70
2019-04-27T13:24:36.873Z,28.90
2019-04-27T13:29:40.608Z,31.60
2019-04-27T13:34:46.193Z,31.50
2019-04-27T13:39:49.960Z,27.80
2019-04-27T13:44:55.742Z,24.90
2019-04-27T13:50:16.686Z,23.00
2019-04-27T13:55:20.430Z,22.10
2019-04-27T14:00:24.251Z,21.70
2019-04-27T14:05:28.199Z,21.20
2019-04-27T14:10:31.989Z,20.00
2019-04-27T14:15:35.938Z,19.30
2019-04-27T14:20:39.749Z,19.00
2019-04-27T14:25:43.822Z,18.40
2019-04-27T14:30:48.699Z,19.10
2019-04-27T14:35:52.569Z,20.10
2019-04-27T14:40:56.794Z,20.00
2019-04-27T14:46:00.462Z,19.60
2019-04-27T14:51:04.430Z,19.00
2019-04-27T14:56:08.857Z,18.80
2019-04-27T15:01:12.917Z,18.80
2019-04-27T15:06:16.573Z,18.80
2019-04-27T15:11:20.486Z,18.80
2019-04-27T15:16:24.220Z,19.00
2019-04-27T15:21:28.323Z,18.70
2019-04-27T15:26:32.190Z,18.90
2019-04-27T15:31:40.869Z,19.10
2019-04-27T15:37:03.870Z,18.40
2019-04-27T15:42:09.809Z,18.30
2019-04-27T15:47:14.005Z,18.20
2019-04-27T15:52:17.973Z,18.50
2019-04-27T15:57:21.968Z,18.60
2019-04-27T16:02:28.905Z,19.00
2019-04-27T16:07:32.825Z,19.30
2019-04-27T16:12:39.007Z,19.30
2019-04-27T16:17:43.920Z,19.60
2019-04-27T16:23:03.164Z,19.00
2019-04-27T16:28:13.397Z,19.00
2019-04-27T16:33:21.977Z,19.20
2019-04-27T16:38:34.596Z,19.50
2019-04-27T16:43:38.613Z,19.40
2019-04-27T16:48:42.437Z,19.10
2019-04-27T16:53:46.103Z,19.40
2019-04-27T16:58:56.566Z,19.10
2019-04-27T17:03:55.428Z,19.00
2019-04-27T17:09:05.473Z,18.70
2019-04-27T17:14:14.383Z,18.90
2019-04-27T17:19:21.805Z,18.60
2019-04-27T17:24:41.642Z,17.90
2019-04-27T17:29:41.520Z,17.50
2019-04-27T17:34:45.446Z,17.20
2019-04-27T17:39:49.149Z,17.10
2019-04-27T17:44:56.940Z,17.10
2019-04-27T17:49:58.835Z,16.90
2019-04-27T17:55:02.521Z,16.80
2019-04-27T18:00:08.772Z,16.70
2019-04-27T18:05:13.847Z,16.50
2019-04-27T18:10:22.988Z,16.50
2019-04-27T18:15:24.037Z,16.40
2019-04-27T18:20:28.918Z,16.50
2019-04-27T18:25:40.444Z,16.50
2019-04-27T18:30:54.459Z,16.30
2019-04-27T18:36:05.074Z,15.60
2019-04-27T18:41:08.022Z,15.30
2019-04-27T18:46:09.215Z,14.90
2019-04-27T18:51:20.638Z,14.40
2019-04-27T18:56:25.791Z,14.20
2019-04-27T19:01:29.546Z,14.10
2019-04-27T19:06:33.624Z,14.10
2019-04-27T19:11:38.335Z,13.80
2019-04-27T19:16:43.115Z,13.80
2019-04-27T19:21:48.575Z,13.70
2019-04-27T19:26:58.724Z,13.60
2019-04-27T19:32:03.091Z,13.50
2019-04-27T19:37:08.127Z,13.60
2019-04-27T19:42:12.228Z,13.20
2019-04-27T19:47:15.932Z,12.90
2019-04-27T19:52:22.550Z,13.00
2019-04-27T19:57:34.679Z,13.00
2019-04-27T20:02:31.420Z,12.70
2019-04-27T20:07:35.387Z,12.60
2019-04-27T20:12:40.977Z,12.40
2019-04-27T20:17:45.903Z,12.40
2019-04-27T20:22:49.759Z,12.20
2019-04-27T20:27:53.483Z,12.20
2019-04-27T20:32:57.812Z,12.20
2019-04-27T20:38:01.565Z,12.30
2019-04-27T20:43:05.674Z,12.40
2019-04-27T20:48:11.195Z,12.60
2019-04-27T20:53:20.795Z,12.80
2019-04-27T20:58:24.510Z,12.70
2019-04-27T21:03:33.147Z,12.70
2019-04-27T21:08:38.235Z,12.90
2019-04-27T21:13:41.903Z,12.70
2019-04-27T21:18:45.864Z,12.70
2019-04-27T21:23:51.380Z,12.60
2019-04-27T21:28:55.210Z,12.70
2019-04-27T21:33:58.972Z,12.60
2019-04-27T21:39:03.614Z,12.80
2019-04-27T21:44:07.354Z,12.80
2019-04-27T21:49:12.631Z,12.90
2019-04-27T21:54:22.549Z,12.80
2019-04-27T21:59:26.266Z,12.80
2019-04-27T22:04:31.494Z,12.90
2019-04-27T22:09:35.337Z,12.90
2019-04-27T22:14:39.090Z,12.90
2019-04-27T22:19:42.825Z,12.80
2019-04-27T22:24:46.742Z,12.90
2019-04-27T22:29:50.816Z,12.60
2019-04-27T22:34:55.834Z,12.60
2019-04-27T22:40:16.547Z,12.50
2019-04-27T22:45:24.094Z,12.30
2019-04-27T22:50:27.993Z,12.20
2019-04-27T22:55:31.680Z,12.10
2019-04-27T23:00:46.206Z,12.10
2019-04-27T23:05:51.298Z,12.10
2019-04-27T23:10:55.053Z,12.00
2019-04-27T23:16:01.480Z,11.70
2019-04-27T23:21:05.430Z,11.80
2019-04-27T23:26:09.085Z,11.70
2019-04-27T23:31:25.524Z,11.60
2019-04-27T23:36:29.202Z,11.40
2019-04-27T23:41:32.874Z,11.00
2019-04-27T23:46:36.838Z,10.90
2019-04-27T23:51:51.666Z,10.70
2019-04-27T23:56:55.331Z,10.70
